sensor_id;sensor_type;location;lat;lon;timestamp;P1;durP1;ratioP1;P2;durP2;ratioP2
27424;SDS011;15244;49.088;11.886;2023-02-10T00:04:00;80.47;;;40.17;;
27424;SDS011;15244;49.088;11.886;2023-02-10T00:09:11;73.55;;;36.40;;
27424;SDS011;15244;49.088;11.886;2023-02-10T00:14:22;73.28;;;36.95;;
27424;SDS011;15244;49.088;11.886;2023-02-10T00:19:27;79.68;;;40.80;;
27424;SDS011;15244;49.088;11.886;2023-02-10T00:24:41;82.07;;;40.00;;
27424;SDS011;15244;49.088;11.886;2023-02-10T00:29:50;77.75;;;40.53;;
27424;SDS011;15244;49.088;11.886;2023-02-10T00:34:51;80.13;;;38.78;;
27424;SDS011;15244;49.088;11.886;2023-02-10T00:40:00;77.57;;;38.15;;
27424;SDS011;15244;49.088;11.886;2023-02-10T00:45:02;76.07;;;37.70;;
27424;SDS011;15244;49.088;11.886;2023-02-10T00:50:04;74.47;;;36.72;;
27424;SDS011;15244;49.088;11.886;2023-02-10T00:55:06;77.07;;;36.83;;
27424;SDS011;15244;49.088;11.886;2023-02-10T01:00:11;78.13;;;38.70;;
27424;SDS011;15244;49.088;11.886;2023-02-10T01:05:13;76.05;;;36.95;;
27424;SDS011;15244;49.088;11.886;2023-02-10T01:10:22;71.82;;;36.13;;
27424;SDS011;15244;49.088;11.886;2023-02-10T01:15:28;73.00;;;38.15;;
27424;SDS011;15244;49.088;11.886;2023-02-10T01:20:32;74.35;;;36.45;;
27424;SDS011;15244;49.088;11.886;2023-02-10T01:25:41;75.00;;;37.05;;
27424;SDS011;15244;49.088;11.886;2023-02-10T01:30:46;70.35;;;36.83;;
27424;SDS011;15244;49.088;11.886;2023-02-10T01:35:48;69.18;;;35.38;;
27424;SDS011;15244;49.088;11.886;2023-02-10T01:40:50;72.45;;;37.13;;
27424;SDS011;15244;49.088;11.886;2023-02-10T01:45:59;73.50;;;36.95;;
27424;SDS011;15244;49.088;11.886;2023-02-10T01:51:17;70.43;;;36.50;;
27424;SDS011;15244;49.088;11.886;2023-02-10T01:56:23;70.45;;;36.10;;
27424;SDS011;15244;49.088;11.886;2023-02-10T02:01:24;73.72;;;36.95;;
27424;SDS011;15244;49.088;11.886;2023-02-10T02:06:36;73.43;;;36.00;;
27424;SDS011;15244;49.088;11.886;2023-02-10T02:11:42;70.97;;;34.40;;
27424;SDS011;15244;49.088;11.886;2023-02-10T02:17:20;78.43;;;37.85;;
27424;SDS011;15244;49.088;11.886;2023-02-10T02:39:27;73.85;;;35.30;;
27424;SDS011;15244;49.088;11.886;2023-02-10T02:44:29;73.05;;;36.47;;
27424;SDS011;15244;49.088;11.886;2023-02-10T02:49:34;72.13;;;36.13;;
27424;SDS011;15244;49.088;11.886;2023-02-10T02:54:54;79.78;;;37.33;;
27424;SDS011;15244;49.088;11.886;2023-02-10T03:05:10;73.85;;;37.28;;
27424;SDS011;15244;49.088;11.886;2023-02-10T03:10:12;73.38;;;36.72;;
27424;SDS011;15244;49.088;11.886;2023-02-10T03:15:22;72.72;;;35.83;;
27424;SDS011;15244;49.088;11.886;2023-02-10T03:20:34;74.50;;;37.05;;
27424;SDS011;15244;49.088;11.886;2023-02-10T03:25:39;75.22;;;37.80;;
27424;SDS011;15244;49.088;11.886;2023-02-10T03:30:43;75.97;;;37.97;;
27424;SDS011;15244;49.088;11.886;2023-02-10T03:35:50;76.78;;;37.25;;
27424;SDS011;15244;49.088;11.886;2023-02-10T03:40:55;81.15;;;37.78;;
27424;SDS011;15244;49.088;11.886;2023-02-10T03:46:04;72.57;;;36.10;;
27424;SDS011;15244;49.088;11.886;2023-02-10T03:51:06;76.80;;;37.38;;
27424;SDS011;15244;49.088;11.886;2023-02-10T03:56:09;76.97;;;37.72;;
27424;SDS011;15244;49.088;11.886;2023-02-10T04:01:14;77.32;;;37.92;;
27424;SDS011;15244;49.088;11.886;2023-02-10T04:06:17;74.53;;;38.00;;
27424;SDS011;15244;49.088;11.886;2023-02-10T04:11:26;74.25;;;36.53;;
27424;SDS011;15244;49.088;11.886;2023-02-10T04:16:36;73.43;;;35.85;;
27424;SDS011;15244;49.088;11.886;2023-02-10T04:21:40;74.60;;;36.10;;
27424;SDS011;15244;49.088;11.886;2023-02-10T04:26:52;69.75;;;35.58;;
27424;SDS011;15244;49.088;11.886;2023-02-10T04:31:55;79.65;;;39.55;;
27424;SDS011;15244;49.088;11.886;2023-02-10T04:36:57;83.95;;;40.42;;
27424;SDS011;15244;49.088;11.886;2023-02-10T04:42:00;78.53;;;38.80;;
27424;SDS011;15244;49.088;11.886;2023-02-10T04:47:06;81.18;;;38.97;;
27424;SDS011;15244;49.088;11.886;2023-02-10T04:52:07;77.57;;;39.00;;
27424;SDS011;15244;49.088;11.886;2023-02-10T04:57:21;85.13;;;43.97;;
27424;SDS011;15244;49.088;11.886;2023-02-10T05:02:27;73.18;;;36.85;;
27424;SDS011;15244;49.088;11.886;2023-02-10T05:07:29;70.63;;;37.83;;
27424;SDS011;15244;49.088;11.886;2023-02-10T05:12:34;78.50;;;36.92;;
27424;SDS011;15244;49.088;11.886;2023-02-10T05:17:43;71.28;;;37.03;;
27424;SDS011;15244;49.088;11.886;2023-02-10T05:22:53;71.75;;;35.90;;
27424;SDS011;15244;49.088;11.886;2023-02-10T05:27:56;65.38;;;34.72;;
27424;SDS011;15244;49.088;11.886;2023-02-10T05:33:02;73.47;;;36.33;;
27424;SDS011;15244;49.088;11.886;2023-02-10T05:38:03;69.30;;;36.00;;
27424;SDS011;15244;49.088;11.886;2023-02-10T05:43:08;68.00;;;34.08;;
27424;SDS011;15244;49.088;11.886;2023-02-10T05:48:18;71.65;;;36.08;;
27424;SDS011;15244;49.088;11.886;2023-02-10T05:53:20;68.10;;;35.60;;
27424;SDS011;15244;49.088;11.886;2023-02-10T05:58:26;74.40;;;37.92;;
27424;SDS011;15244;49.088;11.886;2023-02-10T06:03:36;67.68;;;34.47;;
27424;SDS011;15244;49.088;11.886;2023-02-10T06:08:41;73.80;;;36.17;;
27424;SDS011;15244;49.088;11.886;2023-02-10T06:13:51;80.03;;;42.08;;
27424;SDS011;15244;49.088;11.886;2023-02-10T06:18:53;78.63;;;37.83;;
27424;SDS011;15244;49.088;11.886;2023-02-10T06:23:59;77.28;;;37.65;;
27424;SDS011;15244;49.088;11.886;2023-02-10T06:29:04;74.20;;;36.50;;
27424;SDS011;15244;49.088;11.886;2023-02-10T06:34:09;73.03;;;36.53;;
27424;SDS011;15244;49.088;11.886;2023-02-10T06:39:14;73.55;;;35.88;;
27424;SDS011;15244;49.088;11.886;2023-02-10T06:44:15;75.50;;;40.60;;
27424;SDS011;15244;49.088;11.886;2023-02-10T06:49:25;77.97;;;37.75;;
27424;SDS011;15244;49.088;11.886;2023-02-10T06:54:26;74.57;;;36.45;;
27424;SDS011;15244;49.088;11.886;2023-02-10T06:59:35;75.30;;;36.60;;
27424;SDS011;15244;49.088;11.886;2023-02-10T07:04:41;68.63;;;33.95;;
27424;SDS011;15244;49.088;11.886;2023-02-10T07:09:45;64.78;;;33.50;;
27424;SDS011;15244;49.088;11.886;2023-02-10T07:14:55;72.85;;;35.97;;
27424;SDS011;15244;49.088;11.886;2023-02-10T07:20:03;69.40;;;35.03;;
27424;SDS011;15244;49.088;11.886;2023-02-10T07:25:09;72.60;;;35.10;;
27424;SDS011;15244;49.088;11.886;2023-02-10T07:30:15;71.70;;;34.95;;
27424;SDS011;15244;49.088;11.886;2023-02-10T07:35:27;69.13;;;33.17;;
27424;SDS011;15244;49.088;11.886;2023-02-10T07:40:44;59.28;;;32.35;;
27424;SDS011;15244;49.088;11.886;2023-02-10T07:45:49;70.03;;;35.40;;
27424;SDS011;15244;49.088;11.886;2023-02-10T07:50:53;61.60;;;32.63;;
27424;SDS011;15244;49.088;11.886;2023-02-10T07:55:59;68.93;;;34.10;;
27424;SDS011;15244;49.088;11.886;2023-02-10T08:01:05;76.47;;;37.35;;
27424;SDS011;15244;49.088;11.886;2023-02-10T08:06:12;115.80;;;53.35;;
27424;SDS011;15244;49.088;11.886;2023-02-10T08:11:30;74.82;;;36.80;;
27424;SDS011;15244;49.088;11.886;2023-02-10T08:16:40;67.57;;;35.53;;
27424;SDS011;15244;49.088;11.886;2023-02-10T08:21:45;65.35;;;34.63;;
27424;SDS011;15244;49.088;11.886;2023-02-10T08:26:48;62.10;;;33.03;;
27424;SDS011;15244;49.088;11.886;2023-02-10T08:31:55;68.10;;;34.13;;
27424;SDS011;15244;49.088;11.886;2023-02-10T08:36:59;66.03;;;35.22;;
27424;SDS011;15244;49.088;11.886;2023-02-10T08:42:08;70.55;;;36.90;;
27424;SDS011;15244;49.088;11.886;2023-02-10T08:47:12;75.00;;;38.92;;
27424;SDS011;15244;49.088;11.886;2023-02-10T08:52:19;67.88;;;35.28;;
27424;SDS011;15244;49.088;11.886;2023-02-10T08:57:24;76.78;;;38.00;;
27424;SDS011;15244;49.088;11.886;2023-02-10T09:02:36;64.45;;;34.88;;
27424;SDS011;15244;49.088;11.886;2023-02-10T09:07:40;67.07;;;36.25;;
27424;SDS011;15244;49.088;11.886;2023-02-10T09:12:44;61.53;;;35.13;;
27424;SDS011;15244;49.088;11.886;2023-02-10T09:17:46;64.65;;;33.97;;
27424;SDS011;15244;49.088;11.886;2023-02-10T09:22:52;64.13;;;36.08;;
27424;SDS011;15244;49.088;11.886;2023-02-10T09:27:54;65.30;;;34.20;;
27424;SDS011;15244;49.088;11.886;2023-02-10T09:32:59;64.68;;;33.95;;
27424;SDS011;15244;49.088;11.886;2023-02-10T09:38:11;62.28;;;32.85;;
27424;SDS011;15244;49.088;11.886;2023-02-10T09:48:54;66.63;;;36.88;;
27424;SDS011;15244;49.088;11.886;2023-02-10T09:54:17;63.22;;;33.83;;
27424;SDS011;15244;49.088;11.886;2023-02-10T09:59:26;60.75;;;32.72;;
27424;SDS011;15244;49.088;11.886;2023-02-10T10:04:39;67.03;;;35.60;;
27424;SDS011;15244;49.088;11.886;2023-02-10T10:15:30;60.80;;;34.80;;
27424;SDS011;15244;49.088;11.886;2023-02-10T10:20:49;68.68;;;35.95;;
27424;SDS011;15244;49.088;11.886;2023-02-10T10:26:00;60.03;;;33.28;;
27424;SDS011;15244;49.088;11.886;2023-02-10T10:31:19;55.80;;;31.20;;
27424;SDS011;15244;49.088;11.886;2023-02-10T10:36:34;53.70;;;31.02;;
27424;SDS011;15244;49.088;11.886;2023-02-10T10:41:38;43.78;;;22.85;;
27424;SDS011;15244;49.088;11.886;2023-02-10T10:46:52;55.30;;;30.75;;
27424;SDS011;15244;49.088;11.886;2023-02-10T10:52:31;57.65;;;30.70;;
27424;SDS011;15244;49.088;11.886;2023-02-10T10:57:39;53.05;;;29.23;;
27424;SDS011;15244;49.088;11.886;2023-02-10T11:02:50;49.63;;;26.52;;
27424;SDS011;15244;49.088;11.886;2023-02-10T11:08:04;49.60;;;27.13;;
27424;SDS011;15244;49.088;11.886;2023-02-10T11:13:30;49.50;;;27.63;;
27424;SDS011;15244;49.088;11.886;2023-02-10T11:18:49;43.80;;;26.20;;
27424;SDS011;15244;49.088;11.886;2023-02-10T11:23:57;42.10;;;24.25;;
27424;SDS011;15244;49.088;11.886;2023-02-10T11:29:09;45.92;;;27.13;;
27424;SDS011;15244;49.088;11.886;2023-02-10T11:34:21;47.60;;;27.42;;
27424;SDS011;15244;49.088;11.886;2023-02-10T11:39:34;48.17;;;28.13;;
27424;SDS011;15244;49.088;11.886;2023-02-10T11:44:42;47.37;;;27.10;;
27424;SDS011;15244;49.088;11.886;2023-02-10T11:49:47;47.38;;;26.52;;
27424;SDS011;15244;49.088;11.886;2023-02-10T11:54:59;46.35;;;25.95;;
27424;SDS011;15244;49.088;11.886;2023-02-10T12:00:10;42.85;;;26.75;;
27424;SDS011;15244;49.088;11.886;2023-02-10T12:05:27;43.28;;;26.42;;
27424;SDS011;15244;49.088;11.886;2023-02-10T12:38:08;41.80;;;24.63;;
27424;SDS011;15244;49.088;11.886;2023-02-10T12:48:56;45.35;;;24.40;;
27424;SDS011;15244;49.088;11.886;2023-02-10T12:54:26;42.00;;;24.55;;
27424;SDS011;15244;49.088;11.886;2023-02-10T13:00:05;41.20;;;25.48;;
27424;SDS011;15244;49.088;11.886;2023-02-10T13:05:17;40.20;;;24.08;;
27424;SDS011;15244;49.088;11.886;2023-02-10T13:10:46;45.85;;;25.67;;
27424;SDS011;15244;49.088;11.886;2023-02-10T13:16:02;39.00;;;24.50;;
27424;SDS011;15244;49.088;11.886;2023-02-10T13:26:37;47.42;;;28.23;;
27424;SDS011;15244;49.088;11.886;2023-02-10T13:37:45;45.22;;;25.23;;
27424;SDS011;15244;49.088;11.886;2023-02-10T13:43:04;43.65;;;24.98;;
27424;SDS011;15244;49.088;11.886;2023-02-10T13:48:18;41.35;;;25.75;;
27424;SDS011;15244;49.088;11.886;2023-02-10T14:03:55;37.78;;;23.70;;
27424;SDS011;15244;49.088;11.886;2023-02-10T14:09:19;39.42;;;24.02;;
27424;SDS011;15244;49.088;11.886;2023-02-10T14:14:28;38.50;;;21.92;;
27424;SDS011;15244;49.088;11.886;2023-02-10T14:19:34;37.97;;;22.35;;
27424;SDS011;15244;49.088;11.886;2023-02-10T14:24:42;39.60;;;23.50;;
27424;SDS011;15244;49.088;11.886;2023-02-10T14:29:53;41.08;;;23.90;;
27424;SDS011;15244;49.088;11.886;2023-02-10T14:35:14;37.33;;;23.92;;
27424;SDS011;15244;49.088;11.886;2023-02-10T14:40:34;48.13;;;27.30;;
27424;SDS011;15244;49.088;11.886;2023-02-10T14:45:38;63.13;;;43.03;;
27424;SDS011;15244;49.088;11.886;2023-02-10T14:50:44;35.90;;;24.10;;
27424;SDS011;15244;49.088;11.886;2023-02-10T14:55:56;40.55;;;25.33;;
27424;SDS011;15244;49.088;11.886;2023-02-10T15:06:38;38.25;;;24.45;;
27424;SDS011;15244;49.088;11.886;2023-02-10T15:11:44;39.53;;;24.85;;
27424;SDS011;15244;49.088;11.886;2023-02-10T15:17:13;36.75;;;23.15;;
27424;SDS011;15244;49.088;11.886;2023-02-10T15:27:42;33.25;;;20.95;;
27424;SDS011;15244;49.088;11.886;2023-02-10T15:32:52;33.28;;;20.13;;
27424;SDS011;15244;49.088;11.886;2023-02-10T15:37:59;36.53;;;20.75;;
27424;SDS011;15244;49.088;11.886;2023-02-10T15:43:05;32.33;;;18.60;;
27424;SDS011;15244;49.088;11.886;2023-02-10T15:48:29;29.70;;;19.20;;
27424;SDS011;15244;49.088;11.886;2023-02-10T15:53:44;29.98;;;19.52;;
27424;SDS011;15244;49.088;11.886;2023-02-10T15:58:46;29.65;;;19.77;;
27424;SDS011;15244;49.088;11.886;2023-02-10T16:03:48;33.83;;;20.40;;
27424;SDS011;15244;49.088;11.886;2023-02-10T16:08:52;31.60;;;19.95;;
27424;SDS011;15244;49.088;11.886;2023-02-10T16:13:57;32.60;;;20.00;;
27424;SDS011;15244;49.088;11.886;2023-02-10T16:18:59;35.63;;;20.00;;
27424;SDS011;15244;49.088;11.886;2023-02-10T16:24:17;34.33;;;20.20;;
27424;SDS011;15244;49.088;11.886;2023-02-10T16:29:28;32.53;;;19.73;;
27424;SDS011;15244;49.088;11.886;2023-02-10T16:35:02;38.63;;;19.73;;
27424;SDS011;15244;49.088;11.886;2023-02-10T16:40:07;33.35;;;19.80;;
27424;SDS011;15244;49.088;11.886;2023-02-10T16:45:12;34.63;;;19.92;;
27424;SDS011;15244;49.088;11.886;2023-02-10T16:50:18;34.30;;;18.83;;
27424;SDS011;15244;49.088;11.886;2023-02-10T16:55:32;31.98;;;19.00;;
27424;SDS011;15244;49.088;11.886;2023-02-10T17:00:37;38.30;;;19.67;;
27424;SDS011;15244;49.088;11.886;2023-02-10T17:05:41;38.85;;;21.52;;
27424;SDS011;15244;49.088;11.886;2023-02-10T17:10:47;44.38;;;22.45;;
27424;SDS011;15244;49.088;11.886;2023-02-10T17:15:49;34.53;;;21.05;;
27424;SDS011;15244;49.088;11.886;2023-02-10T17:20:55;35.83;;;21.00;;
27424;SDS011;15244;49.088;11.886;2023-02-10T17:25:59;38.38;;;22.77;;
27424;SDS011;15244;49.088;11.886;2023-02-10T17:31:06;40.33;;;23.45;;
27424;SDS011;15244;49.088;11.886;2023-02-10T17:36:13;35.83;;;21.23;;
27424;SDS011;15244;49.088;11.886;2023-02-10T17:41:40;41.33;;;23.20;;
27424;SDS011;15244;49.088;11.886;2023-02-10T17:46:52;46.15;;;25.67;;
27424;SDS011;15244;49.088;11.886;2023-02-10T17:51:57;48.77;;;27.17;;
27424;SDS011;15244;49.088;11.886;2023-02-10T17:57:01;47.92;;;27.45;;
27424;SDS011;15244;49.088;11.886;2023-02-10T18:02:10;42.10;;;24.73;;
27424;SDS011;15244;49.088;11.886;2023-02-10T18:07:17;63.00;;;34.63;;
27424;SDS011;15244;49.088;11.886;2023-02-10T18:12:36;46.33;;;29.02;;
27424;SDS011;15244;49.088;11.886;2023-02-10T18:17:46;48.10;;;26.70;;
27424;SDS011;15244;49.088;11.886;2023-02-10T18:22:50;56.13;;;29.33;;
27424;SDS011;15244;49.088;11.886;2023-02-10T18:28:16;49.15;;;28.15;;
27424;SDS011;15244;49.088;11.886;2023-02-10T18:33:28;49.90;;;28.58;;
27424;SDS011;15244;49.088;11.886;2023-02-10T18:38:33;51.65;;;27.48;;
27424;SDS011;15244;49.088;11.886;2023-02-10T18:43:34;50.92;;;28.55;;
27424;SDS011;15244;49.088;11.886;2023-02-10T18:48:41;49.55;;;27.70;;
27424;SDS011;15244;49.088;11.886;2023-02-10T18:53:43;56.75;;;29.35;;
27424;SDS011;15244;49.088;11.886;2023-02-10T18:58:47;49.78;;;29.60;;
27424;SDS011;15244;49.088;11.886;2023-02-10T19:03:48;53.38;;;29.65;;
27424;SDS011;15244;49.088;11.886;2023-02-10T19:08:54;51.38;;;29.38;;
27424;SDS011;15244;49.088;11.886;2023-02-10T19:13:56;50.45;;;28.70;;
27424;SDS011;15244;49.088;11.886;2023-02-10T19:19:01;54.90;;;29.13;;
27424;SDS011;15244;49.088;11.886;2023-02-10T19:24:04;49.70;;;29.50;;
27424;SDS011;15244;49.088;11.886;2023-02-10T19:29:06;52.85;;;30.75;;
27424;SDS011;15244;49.088;11.886;2023-02-10T19:39:15;92.70;;;42.55;;
27424;SDS011;15244;49.088;11.886;2023-02-10T19:44:34;54.35;;;28.83;;
27424;SDS011;15244;49.088;11.886;2023-02-10T19:49:42;56.70;;;29.33;;
27424;SDS011;15244;49.088;11.886;2023-02-10T19:54:43;54.00;;;30.15;;
27424;SDS011;15244;49.088;11.886;2023-02-10T19:59:52;62.53;;;33.97;;
27424;SDS011;15244;49.088;11.886;2023-02-10T20:04:58;56.83;;;32.05;;
27424;SDS011;15244;49.088;11.886;2023-02-10T20:15:05;55.55;;;29.15;;
27424;SDS011;15244;49.088;11.886;2023-02-10T20:20:09;51.92;;;30.48;;
27424;SDS011;15244;49.088;11.886;2023-02-10T20:25:18;58.03;;;32.38;;
27424;SDS011;15244;49.088;11.886;2023-02-10T20:30:25;53.58;;;31.90;;
27424;SDS011;15244;49.088;11.886;2023-02-10T20:35:46;58.65;;;32.00;;
27424;SDS011;15244;49.088;11.886;2023-02-10T20:40:52;57.08;;;29.95;;
27424;SDS011;15244;49.088;11.886;2023-02-10T20:45:58;58.78;;;31.90;;
27424;SDS011;15244;49.088;11.886;2023-02-10T20:51:04;51.30;;;30.08;;
27424;SDS011;15244;49.088;11.886;2023-02-10T20:56:11;53.83;;;30.70;;
27424;SDS011;15244;49.088;11.886;2023-02-10T21:01:17;56.22;;;30.17;;
27424;SDS011;15244;49.088;11.886;2023-02-10T21:06:22;51.47;;;28.48;;
27424;SDS011;15244;49.088;11.886;2023-02-10T21:11:36;53.65;;;30.13;;
27424;SDS011;15244;49.088;11.886;2023-02-10T21:16:40;51.78;;;30.42;;
27424;SDS011;15244;49.088;11.886;2023-02-10T21:21:49;48.85;;;28.30;;
27424;SDS011;15244;49.088;11.886;2023-02-10T21:26:55;52.97;;;28.30;;
27424;SDS011;15244;49.088;11.886;2023-02-10T21:31:57;45.97;;;27.25;;
27424;SDS011;15244;49.088;11.886;2023-02-10T21:37:04;53.75;;;29.50;;
27424;SDS011;15244;49.088;11.886;2023-02-10T21:42:10;50.40;;;28.70;;
27424;SDS011;15244;49.088;11.886;2023-02-10T21:47:16;51.15;;;29.48;;
27424;SDS011;15244;49.088;11.886;2023-02-10T21:52:22;46.22;;;27.77;;
27424;SDS011;15244;49.088;11.886;2023-02-10T21:57:24;50.33;;;29.27;;
27424;SDS011;15244;49.088;11.886;2023-02-10T22:02:25;51.83;;;28.75;;
27424;SDS011;15244;49.088;11.886;2023-02-10T22:07:33;53.17;;;29.30;;
27424;SDS011;15244;49.088;11.886;2023-02-10T22:12:45;51.33;;;28.30;;
27424;SDS011;15244;49.088;11.886;2023-02-10T22:17:54;46.60;;;28.27;;
27424;SDS011;15244;49.088;11.886;2023-02-10T22:23:10;54.63;;;30.42;;
27424;SDS011;15244;49.088;11.886;2023-02-10T22:28:14;49.30;;;27.90;;
27424;SDS011;15244;49.088;11.886;2023-02-10T22:33:17;48.97;;;27.60;;
27424;SDS011;15244;49.088;11.886;2023-02-10T22:38:21;50.22;;;28.02;;
27424;SDS011;15244;49.088;11.886;2023-02-10T22:43:30;52.95;;;28.73;;
27424;SDS011;15244;49.088;11.886;2023-02-10T22:48:35;49.95;;;29.17;;
27424;SDS011;15244;49.088;11.886;2023-02-10T22:53:46;52.80;;;29.42;;
27424;SDS011;15244;49.088;11.886;2023-02-10T22:58:48;54.60;;;29.80;;
27424;SDS011;15244;49.088;11.886;2023-02-10T23:03:53;53.38;;;30.70;;
27424;SDS011;15244;49.088;11.886;2023-02-10T23:08:57;53.20;;;29.65;;
27424;SDS011;15244;49.088;11.886;2023-02-10T23:13:59;54.47;;;30.52;;
27424;SDS011;15244;49.088;11.886;2023-02-10T23:19:05;53.85;;;29.70;;
27424;SDS011;15244;49.088;11.886;2023-02-10T23:24:09;53.25;;;30.55;;
27424;SDS011;15244;49.088;11.886;2023-02-10T23:29:11;52.80;;;29.25;;
27424;SDS011;15244;49.088;11.886;2023-02-10T23:34:21;53.53;;;30.00;;
27424;SDS011;15244;49.088;11.886;2023-02-10T23:39:23;52.97;;;30.10;;
27424;SDS011;15244;49.088;11.886;2023-02-10T23:44:26;53.10;;;30.33;;
27424;SDS011;15244;49.088;11.886;2023-02-10T23:49:46;58.20;;;33.90;;
27424;SDS011;15244;49.088;11.886;2023-02-10T23:54:47;56.08;;;31.60;;
27424;SDS011;15244;49.088;11.886;2023-02-10T23:59:53;61.25;;;32.20;;
